Crivitz, WI (54114)

12:34 PM CDT on April 30, 2017 (GMT -0500)
Athelstane Township | | Change Station

Elev 966 ft 45.40 °N, 88.12 °W | Updated 11 seconds ago

Overcast
Overcast
45.0 °F
Feels Like 45 °F
N
0.0
Wind Variable Wind from North
Gusts 0.0 mph

Today
High -- | Low -- °F
--% Chance of Precip.
Yesterday
High -- | Low -- °F
Precip. -- in
Pressure 30.13 in
Visibility 6.0 miles
Clouds Overcast 800 ft
Windchill 45 °F
Dew Point 40 °F
Humidity 81%
Rainfall 0.00 in
Snow Depth Not available.
5:41 AM 7:57 PM
Waxing Crescent, 24% visible
METAR KMNM 301656Z AUTO 07020G28KT 6SM BR OVC008 03/02 A3006 RMK AO2 PK WND 06028/1655 CIG 007V013 SLP203 T00330017 $
Pressure 30.13 in
Visibility 6.0 miles
Clouds Overcast 800 ft
Windchill 45 °F
Dew Point 40 °F
Humidity 81%
Rainfall 0.00 in
Snow Depth Not available.
5:41 AM 7:57 PM
Waxing Crescent, 24% visible
METAR KMNM 301656Z AUTO 07020G28KT 6SM BR OVC008 03/02 A3006 RMK AO2 PK WND 06028/1655 CIG 007V013 SLP203 T00330017 $

Get Severe Weather Alerts

Thanks for signing up!

Be on the lookout for a verification email in your inbox.

You'll start receiving the daily forecast at 8 AM.

×

10-Day Weather Forecast

Almanac

Astronomy

Apr. 30, 2017 Rise Set
Actual Time
Civil Twilight
Nautical Twilight
Astronomical Twilight
Moon
Length of Visible Light
Length of Day
Tomorrow will be .
, % of the Moon is Illuminated

Today's Extremes

State Highs State Lows

Community

WunderPhotos

WunderBlog® & News

Nearby

Air Quality

  Air Quality AQ Index Pollutant
Not available.

Snow Depth

Station Depth Elevation

Earthquake Activity

City Distance Mag. Time & Date
Minimum magnitude displayed is 2.5.

Coastal Water Temperatures

Place Temperature

Stations

Nearby Weather Stations

Station Location Temp. Windchill Dew Point Humidity Wind Precip. Elev Updated Type
                   

Watches & Warnings

There are currently no watches in effect.